Pagrindinis puslapis
METAR-TAF:

METAR-TAF

Oro uostai :

Tumbes, Peru

platuma: 03-33S, ilguma: 080-24W, Aukštis: 25 m

Dabartinis oras

Ataskaita buvo paskelbta 44 minutes, ne 22:00 UTC
Vėjas 7 kt iš Vakarų/Šiaurės Vakarų
Temperatūra 27°C
Drėgmė 79%
Slėgis 1008 hPa
Matomumas 10 km arba daugiau
Su prošvaistėmis ne aukštis 2000 ft

METAR: SPME 212200Z 30007KT 9999 BKN020 27/23 Q1008 RMK BIRD HAZARD RWY 32/14 PP000

Laikas: 17:44 (22:44 UTC)

Prognozė

Ataskaita buvo paskelbta 5 valandos ir 44 minutes, ne 17:00 UTC
Prognozė galioja nuo 21 metu 18 UTC su 22 metu 18 UTC
Vėjas 10 kt iš Šiaurės
Matomumas 10 km arba daugiau
Išsisklaidę debesys ne aukštis 2000 ft
Tapsmas
nuo 21 metu 22 UTC su 21 metu 23 UTC
Vėjas 5 kt iš Vakarų
Tapsmas
nuo 22 metu 15 UTC su 22 metu 17 UTC
Vėjas 10 kt iš Šiaurės/Šiaurės Vakarų

TAF: SPME 211700Z 2118/2218 35010KT 9999 SCT020 TX31/2119Z TN22/2211Z BECMG 2122/2123 26005KT BECMG 2215/2217 33010KT

Orai ataskaitas ir orų prognozės (METAR, TAF).

turimą stotys yra geltonos ir raudonos taškus žemėlapyje.

Perkelti pele per norėdami pamatyti stoties vardą.

Tada spustelėkite, norėdami matyti oro stebėjimo ir prognozės.

Norėdami pakeisti žemėlapį: spustelėkite ant žalios mygtukų su juodo kryžiaus žemyn,; žalią mygtuką su brūkšneliu, jei norite nutolinti; arba žalių rodyklių gretimoms žemėlapius.


METAR-TAF: